createdAt,value
2023-03-20T00:02:24.336Z,6.90
2023-03-20T00:04:58.231Z,6.70
2023-03-20T00:07:26.119Z,7.03
2023-03-20T00:09:53.260Z,7.30
2023-03-20T00:12:26.318Z,6.78
2023-03-20T00:14:53.187Z,7.05
2023-03-20T00:17:21.831Z,6.85
2023-03-20T00:19:48.489Z,7.25
2023-03-20T00:22:15.539Z,7.18
2023-03-20T00:24:43.354Z,7.13
2023-03-20T00:27:17.752Z,7.38
2023-03-20T00:29:44.916Z,6.68
2023-03-20T00:32:14.368Z,6.70
2023-03-20T00:34:41.368Z,6.75
2023-03-20T00:37:10.482Z,6.32
2023-03-20T00:39:37.084Z,6.63
2023-03-20T00:42:07.975Z,6.68
2023-03-20T00:44:43.100Z,6.70
2023-03-20T00:47:20.128Z,6.30
2023-03-20T00:49:51.460Z,6.40
2023-03-20T00:52:19.729Z,6.50
2023-03-20T00:54:46.758Z,6.53
2023-03-20T00:57:24.365Z,7.00
2023-03-20T00:59:54.917Z,6.63
2023-03-20T01:02:23.798Z,6.35
2023-03-20T01:04:50.394Z,7.00
2023-03-20T01:07:18.553Z,5.97
2023-03-20T01:09:46.392Z,6.35
2023-03-20T01:12:19.690Z,6.45
2023-03-20T01:14:52.692Z,6.70
2023-03-20T01:17:25.324Z,6.68
2023-03-20T01:19:52.337Z,6.60
2023-03-20T01:22:22.578Z,6.70
2023-03-20T01:24:49.402Z,6.60
2023-03-20T01:27:18.582Z,7.10
2023-03-20T01:29:46.936Z,7.00
2023-03-20T01:32:16.782Z,7.10
2023-03-20T01:34:46.549Z,7.50
2023-03-20T01:37:26.402Z,6.93
2023-03-20T01:39:53.647Z,6.97
2023-03-20T01:42:21.088Z,7.53
2023-03-20T01:44:49.283Z,7.57
2023-03-20T01:47:23.588Z,7.60
2023-03-20T01:50:18.529Z,7.05
2023-03-20T01:52:46.624Z,7.03
2023-03-20T01:55:15.054Z,6.88
2023-03-20T01:57:46.068Z,7.20
2023-03-20T02:00:16.699Z,7.00
2023-03-20T02:02:48.650Z,6.72
2023-03-20T02:05:19.691Z,6.53
2023-03-20T02:07:54.906Z,5.93
2023-03-20T02:10:21.793Z,6.63
2023-03-20T02:12:48.939Z,6.53
2023-03-20T02:15:18.269Z,6.03
2023-03-20T02:17:49.554Z,6.32
2023-03-20T02:20:22.780Z,6.80
2023-03-20T02:23:14.814Z,7.03
2023-03-20T02:25:50.266Z,6.57
2023-03-20T02:28:44.633Z,6.50
2023-03-20T02:31:50.904Z,6.53
2023-03-20T02:34:31.176Z,6.32
2023-03-20T02:37:35.916Z,6.80
2023-03-20T02:40:23.019Z,6.32
2023-03-20T02:43:12.930Z,6.13
2023-03-20T02:46:03.277Z,6.73
2023-03-20T02:48:48.791Z,6.45
2023-03-20T02:51:25.258Z,6.65
2023-03-20T02:54:19.503Z,6.88
2023-03-20T02:57:07.410Z,6.97
2023-03-20T03:00:02.376Z,7.20
2023-03-20T03:02:40.940Z,7.32
2023-03-20T03:05:15.657Z,7.10
2023-03-20T03:07:50.390Z,7.50
2023-03-20T03:10:27.416Z,7.40
2023-03-20T03:12:56.904Z,7.07
2023-03-20T03:15:33.172Z,8.10
2023-03-20T03:18:02.925Z,7.43
2023-03-20T03:20:32.623Z,7.87
2023-03-20T03:23:00.314Z,8.07
2023-03-20T03:25:33.289Z,8.70
2023-03-20T03:28:19.700Z,7.43
2023-03-20T03:30:47.063Z,7.65
2023-03-20T03:33:30.029Z,8.10
2023-03-20T03:36:17.262Z,7.50
2023-03-20T03:39:02.601Z,8.10
2023-03-20T03:41:38.176Z,8.13
2023-03-20T03:44:12.430Z,8.85
2023-03-20T03:46:54.778Z,9.10
2023-03-20T03:49:35.934Z,9.75
2023-03-20T03:52:10.022Z,9.65
2023-03-20T03:54:43.599Z,9.13
2023-03-20T03:57:12.913Z,8.48
2023-03-20T03:59:44.615Z,9.93
2023-03-20T04:02:12.239Z,9.63
2023-03-20T04:04:43.966Z,9.80
2023-03-20T04:07:14.318Z,9.70
2023-03-20T04:09:44.356Z,9.50
2023-03-20T04:12:46.676Z,9.43
2023-03-20T04:15:15.145Z,9.57
2023-03-20T04:17:45.435Z,9.75
2023-03-20T04:20:13.355Z,9.23
2023-03-20T04:22:42.157Z,10.07
2023-03-20T04:25:10.331Z,10.35
2023-03-20T04:27:38.014Z,10.10
2023-03-20T04:30:09.517Z,10.38
2023-03-20T04:32:36.576Z,10.95
2023-03-20T04:35:03.518Z,10.75
2023-03-20T04:37:31.067Z,9.95
2023-03-20T04:39:59.969Z,10.30
2023-03-20T04:42:29.356Z,10.38
2023-03-20T04:44:56.627Z,11.27
2023-03-20T04:47:24.175Z,10.80
2023-03-20T04:49:52.375Z,11.40
2023-03-20T04:52:21.886Z,11.23
2023-03-20T04:54:50.270Z,12.02
2023-03-20T04:57:17.208Z,11.95
2023-03-20T04:59:49.887Z,11.57
2023-03-20T05:02:18.463Z,11.48
2023-03-20T05:04:45.181Z,12.45
2023-03-20T05:07:11.952Z,11.60
2023-03-20T05:09:42.049Z,12.18
2023-03-20T05:12:13.428Z,12.52
2023-03-20T05:14:48.550Z,12.00
2023-03-20T05:17:17.107Z,12.35
2023-03-20T05:19:45.152Z,13.70
2023-03-20T05:22:13.854Z,13.27
2023-03-20T05:24:41.572Z,14.02
2023-03-20T05:27:09.933Z,13.35
2023-03-20T05:29:37.865Z,14.90
2023-03-20T05:32:08.279Z,16.27
2023-03-20T05:34:37.947Z,17.00
2023-03-20T05:37:09.671Z,16.73
2023-03-20T05:39:45.523Z,16.88
2023-03-20T05:42:13.097Z,17.90
2023-03-20T05:44:40.561Z,17.95
2023-03-20T05:47:08.961Z,17.55
2023-03-20T05:49:39.257Z,17.98
2023-03-20T05:52:08.459Z,19.10
2023-03-20T05:54:35.620Z,18.45
2023-03-20T05:57:03.945Z,19.90
2023-03-20T06:02:11.672Z,21.58
2023-03-20T06:07:22.940Z,21.75
2023-03-20T06:10:11.503Z,21.90
2023-03-20T06:12:42.055Z,21.92
2023-03-20T06:15:11.659Z,22.73
2023-03-20T06:17:39.027Z,23.15
2023-03-20T06:20:07.156Z,23.42
2023-03-20T06:22:40.903Z,23.08
2023-03-20T06:25:09.178Z,22.65
2023-03-20T06:27:39.480Z,22.00
2023-03-20T06:30:07.818Z,23.05
2023-03-20T06:32:38.713Z,22.65
2023-03-20T06:40:29.549Z,23.83
2023-03-20T06:42:58.645Z,24.45
2023-03-20T06:45:26.159Z,25.15
2023-03-20T06:47:54.642Z,24.92
2023-03-20T06:50:21.660Z,27.13
2023-03-20T06:55:29.347Z,25.05
2023-03-20T06:57:58.268Z,26.20
2023-03-20T07:00:29.542Z,28.95
2023-03-20T07:05:58.700Z,29.58
2023-03-20T07:08:27.615Z,28.77
2023-03-20T07:10:56.273Z,29.35
2023-03-20T07:13:29.016Z,28.38
2023-03-20T07:18:40.706Z,28.15
2023-03-20T07:21:19.027Z,26.75
2023-03-20T07:23:47.872Z,28.30
2023-03-20T07:26:15.077Z,27.80
2023-03-20T07:28:42.899Z,27.92
2023-03-20T07:31:21.253Z,25.50
2023-03-20T07:33:52.598Z,25.33
2023-03-20T07:36:20.783Z,26.20
2023-03-20T07:38:50.221Z,25.08
2023-03-20T07:41:19.423Z,25.60
2023-03-20T07:43:47.634Z,25.42
2023-03-20T07:46:15.761Z,25.92
2023-03-20T07:48:44.907Z,25.52
2023-03-20T07:51:14.236Z,24.55
2023-03-20T07:53:41.110Z,23.55
2023-03-20T07:56:13.785Z,23.75
2023-03-20T07:58:47.281Z,23.67
2023-03-20T08:01:15.323Z,23.10
2023-03-20T08:03:42.390Z,23.67
2023-03-20T08:06:15.249Z,24.20
2023-03-20T08:08:43.039Z,23.30
2023-03-20T08:11:12.986Z,24.15
2023-03-20T08:13:40.358Z,22.85
2023-03-20T08:16:09.759Z,24.73
2023-03-20T08:18:41.790Z,22.60
2023-03-20T08:21:09.783Z,25.75
2023-03-20T08:23:50.905Z,24.23
2023-03-20T08:26:23.579Z,23.73
2023-03-20T08:29:01.064Z,24.17
2023-03-20T08:31:28.354Z,24.00
2023-03-20T08:34:02.802Z,24.23
2023-03-20T08:36:31.211Z,25.42
2023-03-20T08:39:04.613Z,26.70
2023-03-20T08:41:38.632Z,27.17
2023-03-20T08:44:08.392Z,29.00
2023-03-20T08:46:45.353Z,29.85
2023-03-20T08:49:15.062Z,29.30
2023-03-20T08:51:43.074Z,29.30
2023-03-20T08:56:55.519Z,29.45
2023-03-20T08:59:34.272Z,30.20
2023-03-20T09:02:13.998Z,30.25
2023-03-20T09:04:43.612Z,29.58
2023-03-20T09:07:12.612Z,30.13
2023-03-20T09:09:42.162Z,29.23
2023-03-20T09:12:13.987Z,27.83
2023-03-20T09:14:41.592Z,30.73
2023-03-20T09:17:09.977Z,29.40
2023-03-20T09:19:49.037Z,30.02
2023-03-20T09:22:28.845Z,28.88
2023-03-20T09:25:07.657Z,29.13
2023-03-20T09:27:37.350Z,29.23
2023-03-20T09:30:08.695Z,28.80
2023-03-20T09:32:36.869Z,29.58
2023-03-20T09:35:07.468Z,29.60
2023-03-20T09:37:39.686Z,29.27
2023-03-20T09:40:07.787Z,26.73
2023-03-20T09:43:01.307Z,26.67
2023-03-20T09:46:00.437Z,26.70
2023-03-20T09:49:17.863Z,25.75
2023-03-20T09:51:58.930Z,25.45
2023-03-20T09:54:54.133Z,23.85
2023-03-20T09:57:28.365Z,23.33
2023-03-20T10:00:07.583Z,24.27
2023-03-20T10:03:12.075Z,24.17
2023-03-20T10:05:49.502Z,22.25
2023-03-20T10:08:21.524Z,23.55
2023-03-20T10:11:02.893Z,24.48
2023-03-20T10:13:52.684Z,24.60
2023-03-20T10:16:55.086Z,24.03
2023-03-20T10:19:49.772Z,21.63
2023-03-20T10:22:33.349Z,20.50
2023-03-20T10:25:24.015Z,19.27
2023-03-20T10:28:07.381Z,19.85
2023-03-20T10:30:45.193Z,19.38
2023-03-20T10:33:34.131Z,20.52
2023-03-20T10:36:46.865Z,19.88
2023-03-20T10:39:21.006Z,19.17
2023-03-20T10:41:55.242Z,19.65
2023-03-20T10:44:46.145Z,18.65
2023-03-20T10:47:25.942Z,17.77
2023-03-20T10:49:58.803Z,16.65
2023-03-20T10:52:42.454Z,17.38
2023-03-20T10:55:32.239Z,16.40
2023-03-20T10:58:07.694Z,16.02
2023-03-20T11:00:41.870Z,14.50
2023-03-20T11:03:28.801Z,15.65
2023-03-20T11:06:10.149Z,14.05
2023-03-20T11:08:42.526Z,12.95
2023-03-20T11:11:10.674Z,12.38
2023-03-20T11:13:43.552Z,12.45
2023-03-20T11:16:22.461Z,12.63
2023-03-20T11:18:56.197Z,12.38
2023-03-20T11:22:02.060Z,12.15
2023-03-20T11:24:47.674Z,12.90
2023-03-20T11:27:32.961Z,12.10
2023-03-20T11:30:05.679Z,12.90
2023-03-20T11:32:36.532Z,12.07
2023-03-20T11:35:27.523Z,12.65
2023-03-20T11:38:08.725Z,12.27
2023-03-20T11:40:47.387Z,11.80
2023-03-20T11:43:24.813Z,12.43
2023-03-20T11:46:02.666Z,12.15
2023-03-20T11:48:53.497Z,11.07
2023-03-20T11:51:28.498Z,9.82
2023-03-20T11:54:03.644Z,9.38
2023-03-20T11:56:42.217Z,8.85
2023-03-20T11:59:20.080Z,9.07
2023-03-20T12:04:50.441Z,8.73
2023-03-20T12:07:26.975Z,8.90
2023-03-20T12:10:07.168Z,8.55
2023-03-20T12:15:33.455Z,7.30
2023-03-20T12:18:18.590Z,7.57
2023-03-20T12:20:55.389Z,7.55
2023-03-20T12:23:36.140Z,7.50
2023-03-20T12:26:24.725Z,8.40
2023-03-20T12:29:01.629Z,8.15
2023-03-20T12:32:07.703Z,8.45
2023-03-20T12:34:55.422Z,8.35
2023-03-20T12:37:29.056Z,8.10
2023-03-20T12:40:02.747Z,8.45
2023-03-20T12:43:09.648Z,8.95
2023-03-20T12:45:53.542Z,8.32
2023-03-20T12:48:56.482Z,7.70
2023-03-20T12:51:41.082Z,7.07
2023-03-20T12:54:59.147Z,7.00
2023-03-20T13:01:13.968Z,5.65
2023-03-20T13:04:37.140Z,4.80
2023-03-20T13:07:38.771Z,4.82
2023-03-20T13:10:21.609Z,4.50
2023-03-20T13:16:14.747Z,4.40
2023-03-20T13:18:56.593Z,8.13
2023-03-20T13:21:59.957Z,4.65
2023-03-20T13:25:03.140Z,4.20
2023-03-20T13:31:05.352Z,3.70
2023-03-20T13:40:24.000Z,3.33
2023-03-20T13:43:07.690Z,3.15
2023-03-20T13:51:43.153Z,2.58
2023-03-20T13:54:38.667Z,3.17
2023-03-20T13:57:38.820Z,3.03
2023-03-20T14:00:55.432Z,2.80
2023-03-20T14:03:34.602Z,2.90
2023-03-20T14:06:31.600Z,2.63
2023-03-20T14:09:07.946Z,2.53
2023-03-20T14:11:38.672Z,2.30
2023-03-20T14:14:19.740Z,2.42
2023-03-20T14:17:17.821Z,2.75
2023-03-20T14:22:52.764Z,3.20
2023-03-20T14:25:40.744Z,2.50
2023-03-20T14:28:22.649Z,2.58
2023-03-20T14:30:54.233Z,2.78
2023-03-20T14:33:23.331Z,2.97
2023-03-20T14:36:15.961Z,3.10
2023-03-20T14:39:21.179Z,2.80
2023-03-20T14:42:24.404Z,3.05
2023-03-20T14:45:20.679Z,2.60
2023-03-20T14:48:20.062Z,3.60
2023-03-20T14:50:47.789Z,2.85
2023-03-20T14:53:28.104Z,2.47
2023-03-20T14:56:03.593Z,3.28
2023-03-20T14:58:47.453Z,3.25
2023-03-20T15:01:28.623Z,3.60
2023-03-20T15:04:31.779Z,3.42
2023-03-20T15:07:25.820Z,3.70
2023-03-20T15:09:57.685Z,3.13
2023-03-20T15:12:34.352Z,3.35
2023-03-20T15:15:17.639Z,3.08
2023-03-20T15:17:56.500Z,4.13
2023-03-20T15:20:37.194Z,3.20
2023-03-20T15:25:52.073Z,3.22
2023-03-20T15:33:49.551Z,3.30
2023-03-20T15:36:23.156Z,3.70
2023-03-20T15:38:56.678Z,3.30
2023-03-20T15:41:37.796Z,3.17
2023-03-20T15:44:27.114Z,3.20
2023-03-20T15:47:26.471Z,3.03
2023-03-20T15:50:04.636Z,2.40
2023-03-20T15:52:54.064Z,2.35
2023-03-20T15:55:26.794Z,1.98
2023-03-20T15:58:00.297Z,2.08
2023-03-20T16:00:55.076Z,1.90
2023-03-20T16:03:27.570Z,1.80
2023-03-20T16:06:02.256Z,2.10
2023-03-20T16:08:40.110Z,1.58
2023-03-20T16:11:23.076Z,1.60
2023-03-20T16:13:55.609Z,1.60
2023-03-20T16:16:25.425Z,2.03
2023-03-20T16:19:00.014Z,2.25
2023-03-20T16:24:42.621Z,2.00
2023-03-20T16:30:02.607Z,1.90
2023-03-20T16:32:44.525Z,2.20
2023-03-20T16:35:46.027Z,2.28
2023-03-20T16:38:40.023Z,2.13
2023-03-20T16:41:46.215Z,2.40
2023-03-20T16:44:20.711Z,2.13
2023-03-20T16:47:23.690Z,2.00
2023-03-20T16:50:28.490Z,2.67
2023-03-20T16:52:58.925Z,2.30
2023-03-20T16:55:47.026Z,2.22
2023-03-20T16:58:49.040Z,2.00
2023-03-20T17:05:04.576Z,2.10
2023-03-20T17:07:41.026Z,2.00
2023-03-20T17:10:21.564Z,2.42
2023-03-20T17:12:53.715Z,1.90
2023-03-20T17:18:14.995Z,1.92
2023-03-20T17:20:45.626Z,2.40
2023-03-20T17:25:54.672Z,2.40
2023-03-20T17:28:25.714Z,2.72
2023-03-20T17:31:00.282Z,2.55
2023-03-20T17:33:29.519Z,2.40
2023-03-20T17:35:58.514Z,2.35
2023-03-20T17:38:27.333Z,2.45
2023-03-20T17:40:54.533Z,2.22
2023-03-20T17:43:31.992Z,2.63
2023-03-20T17:46:03.426Z,2.20
2023-03-20T17:48:38.176Z,2.67
2023-03-20T17:53:56.075Z,2.50
2023-03-20T17:56:28.346Z,2.45
2023-03-20T17:58:57.529Z,2.70
2023-03-20T18:01:27.400Z,2.35
2023-03-20T18:03:54.879Z,2.67
2023-03-20T18:06:33.416Z,2.30
2023-03-20T18:09:02.602Z,2.40
2023-03-20T18:11:33.658Z,2.28
2023-03-20T18:14:13.187Z,2.42
2023-03-20T18:17:03.013Z,2.80
2023-03-20T18:19:36.802Z,2.40
2023-03-20T18:22:04.460Z,2.33
2023-03-20T18:24:37.539Z,2.50
2023-03-20T18:27:09.243Z,2.47
2023-03-20T18:29:43.367Z,2.38
2023-03-20T18:32:11.246Z,3.55
2023-03-20T18:34:38.264Z,2.63
2023-03-20T18:37:10.143Z,2.83
2023-03-20T18:39:37.320Z,2.33
2023-03-20T18:42:07.678Z,2.50
2023-03-20T18:44:41.439Z,3.17
2023-03-20T18:47:22.302Z,3.00
2023-03-20T18:50:37.170Z,2.70
2023-03-20T19:09:15.161Z,2.70
2023-03-20T19:17:00.088Z,3.08
2023-03-20T19:19:39.236Z,3.45
2023-03-20T19:22:28.984Z,2.67
2023-03-20T19:30:48.743Z,3.80
2023-03-20T19:36:14.236Z,3.35
2023-03-20T19:42:29.419Z,3.40
2023-03-20T20:05:59.358Z,3.15
2023-03-20T20:09:10.685Z,3.17
2023-03-20T20:11:34.690Z,3.10
2023-03-20T20:14:10.497Z,3.63
2023-03-20T20:16:44.615Z,3.20
2023-03-20T20:19:36.166Z,2.80
2023-03-20T20:22:25.812Z,3.10
2023-03-20T20:24:59.169Z,3.10
2023-03-20T20:27:51.902Z,3.30
2023-03-20T20:30:44.234Z,3.35
2023-03-20T20:33:34.150Z,3.30
2023-03-20T20:44:50.919Z,3.75
2023-03-20T20:47:24.058Z,4.15
2023-03-20T20:49:52.658Z,3.97
2023-03-20T20:55:21.234Z,3.35
2023-03-20T20:58:09.389Z,3.25
2023-03-20T21:00:50.098Z,3.53
2023-03-20T21:03:22.204Z,3.20
2023-03-20T21:06:43.983Z,3.10
2023-03-20T21:12:58.611Z,3.05
2023-03-20T21:15:27.860Z,3.20
2023-03-20T21:18:02.742Z,3.25
2023-03-20T21:21:00.275Z,3.60
2023-03-20T21:23:35.844Z,2.72
2023-03-20T21:29:12.568Z,3.63
2023-03-20T21:31:41.417Z,2.90
2023-03-20T21:34:11.069Z,2.78
2023-03-20T21:36:37.793Z,3.22
2023-03-20T21:39:08.786Z,3.08
2023-03-20T21:41:42.060Z,3.80
2023-03-20T21:44:16.768Z,4.40
2023-03-20T21:50:37.160Z,3.10
2023-03-20T22:10:26.508Z,3.35
2023-03-20T22:13:37.099Z,3.10
2023-03-20T22:16:18.876Z,3.00
2023-03-20T22:22:13.641Z,2.90
2023-03-20T22:27:46.002Z,3.30
2023-03-20T22:30:31.329Z,3.20
2023-03-20T22:33:22.760Z,3.60
2023-03-20T22:36:18.697Z,2.95
2023-03-20T22:39:19.929Z,2.80
2023-03-20T22:45:19.700Z,2.70
2023-03-20T22:47:08.455Z,2.95
2023-03-20T22:49:35.654Z,3.20
2023-03-20T22:54:47.672Z,3.00
2023-03-20T22:57:18.895Z,3.40
2023-03-20T23:00:01.893Z,3.53
2023-03-20T23:02:33.069Z,2.92
2023-03-20T23:05:00.869Z,2.88
2023-03-20T23:07:28.780Z,3.03
2023-03-20T23:09:58.789Z,3.25
2023-03-20T23:15:06.471Z,2.90
2023-03-20T23:17:35.579Z,2.97
2023-03-20T23:20:15.791Z,2.83
2023-03-20T23:22:56.489Z,3.13
2023-03-20T23:25:38.788Z,3.10
2023-03-20T23:28:10.421Z,3.20
2023-03-20T23:30:51.869Z,3.65
2023-03-20T23:33:39.212Z,3.25
2023-03-20T23:36:18.985Z,3.47
2023-03-20T23:42:06.138Z,3.50
2023-03-20T23:44:39.465Z,3.35
2023-03-20T23:50:02.058Z,3.40
2023-03-20T23:52:36.592Z,3.33
2023-03-20T23:55:07.361Z,3.10
2023-03-20T23:57:34.836Z,3.15
